2022年5月22日 16:002022年5月22日 21:00有效
时间
星期日
16:00
>40%
星期日
17:00
>40%
星期日
18:00
>40%
星期日
19:00
>40%
星期日
20:00
代码
LIFR
LIFR
LIFR
LIFR
VFR
天气
碎云
碎云
碎云
碎云
碎云
能见度
10 km
10 km
10 km
10 km
10 km
天花板
2.000 ft
2.000 ft
2.000 ft
2.000 ft
11.000 ft
290°
290°
290°
290°
290°
290°
290°
290°
310°
310°
速度
12 kt
12 kt
12 kt
12 kt
10 kt
阵风
温度/星期日
20:40

原版的

TAF CYSN 221940Z 2220/2301 29012KT P6SM FEW020 OVC090
TEMPO 2220/2224 FEW005 BKN020 OVC090
FM230000 31010KT P6SM BKN110 RMK NXT FCST BY 231300Z

TAF 多倫多皮爾遜國際機場

多倫多皮爾遜國際機場是Toronto,加拿大中的大型机场。 该机场有6条跑道: 6L/24R, 6R/24L, 5/23, 15L/33R, 15R/33L 和 15/33.

这份报告是针对2022年5月22日 15:40, 当地时间在Niagara District Airport进行的。 从2022年5月22日 16:00到2022年5月22日 21:00, 当地时间有效.

预报

  • 从星期日 16:00到21:00

    • 风: 风来自290°方向,速度为12 kt。
    • 能见度: 10 km
    • 乌云: 几云在2.000 ft的高度 和 乌云密布在9.000 ft的高度.

  • 暂时在星期日 16:00和20:00之间

    • 乌云: 几云在500 ft的高度, 碎云在2.000 ft的高度 和 乌云密布在9.000 ft的高度.

  • (not set) (not set)(not set)

    • 风: 风来自310°方向,速度为10 kt。
    • 能见度: 10 km
    • 乌云: 碎云在11.000 ft的高度.

白天

今天,太阳从05:45升起,在20:45降落。 这适用于多倫多皮爾遜國際機場,世界夏令时可能有所不同。 当地时间与世界标准时间之间的时差为-4 小时。 夏令时目前正在进行中。

下载我们的应用程序

在您的手机和平板电脑上轻松访问所有航空天气。
有许多网站上没有的功能,如离线支持和个人机场列表。

Studio Eveline

Benalmádena
España

我们和第三方通过cookies跟踪您在我们网站上的上网行为。如果您继续,我们认为您同意我们的cookie政策。 了解更多